Time;durP1;ratioP1;P1;durP2;ratioP2;P2;SDS_P1;SDS_P2;PMS_P1;PMS_P2;Temp;Humidity;BMP_temperature;BMP_pressure;BME280_temperature;BME280_humidity;BME280_pressure;Samples;Min_cycle;Max_cycle;Signal;HPM_P1;HPM_P2
2023/01/01 00:01:23;;;;;;;;;;;;;;;10.02;85.24;100153.91;4794264;29;19935;-81
2023/01/01 00:03:50;;;;;;;;;;;;;;;10.13;85.52;100153.06;4845935;29;19930;-82
2023/01/01 00:06:16;;;;;;;;;;;;;;;10.09;85.42;100151.59;4820363;29;19968;-82
2023/01/01 00:08:43;;;;;;;;;;;;;;;10.09;86.39;100151.59;4834676;29;20309;-82
2023/01/01 00:11:10;;;;;;;;;;;;;;;10.03;86.02;100160.91;4819434;29;20393;-82
2023/01/01 00:13:38;;;;;;;;;;;;;;;10.03;84.06;100166.22;4796636;29;19925;-82
2023/01/01 00:16:09;;;;;;;;;;;;;;;9.91;83.45;100161.91;4821850;29;19936;-82
2023/01/01 00:18:36;;;;;;;;;;;;;;;9.96;84.00;100167.66;4799736;29;19932;-84
2023/01/01 00:21:03;;;;;;;;;;;;;;;9.97;85.44;100164.91;4821921;29;19931;-81
2023/01/01 00:23:29;;;;;;;;;;;;;;;10.03;86.49;100168.88;4851432;29;20380;-82
2023/01/01 00:25:56;;;;;;;;;;;;;;;10.07;86.04;100159.66;4821791;29;20428;-81
2023/01/01 00:28:23;;;;;;;;;;;;;;;9.91;84.85;100162.72;4844355;29;19970;-81
2023/01/01 00:30:49;;;;;;;;;;;;;;;9.85;84.48;100157.94;4820330;29;20525;-81
2023/01/01 00:33:16;;;;;;;;;;;;;;;9.85;84.45;100159.75;4895394;29;20032;-81
2023/01/01 00:35:42;;;;;;;;;;;;;;;9.90;85.06;100166.38;4902076;29;20018;-82
2023/01/01 00:38:09;;;;;;;;;;;;;;;9.92;86.28;100175.03;4906912;29;19923;-82
2023/01/01 00:40:36;;;;;;;;;;;;;;;9.93;86.16;100166.09;4900044;29;19930;-81
2023/01/01 00:43:02;;;;;;;;;;;;;;;9.90;86.40;100163.72;4912210;29;20463;-81
2023/01/01 00:45:29;;;;;;;;;;;;;;;10.07;86.38;100170.28;4892724;29;20381;-81
2023/01/01 00:47:55;;;;;;;;;;;;;;;10.03;86.73;100181.28;4903261;29;19923;-81
2023/01/01 00:50:22;;;;;;;;;;;;;;;10.09;86.76;100172.81;4884625;29;19930;-82
2023/01/01 00:52:48;;;;;;;;;;;;;;;10.08;86.81;100179.13;4916279;29;20299;-82
2023/01/01 00:55:15;;;;;;;;;;;;;;;9.97;86.47;100172.00;4890831;29;19934;-82
2023/01/01 00:57:42;;;;;;;;;;;;;;;10.08;87.47;100173.81;4916366;29;19923;-82
2023/01/01 01:00:09;;;;;;;;;;;;;;;10.10;87.36;100174.50;4877599;29;19923;-81
2023/01/01 01:02:35;;;;;;;;;;;;;;;10.01;86.88;100170.78;4873043;29;19927;-82
2023/01/01 01:05:03;;;;;;;;;;;;;;;10.03;87.17;100176.00;4918816;29;20406;-82
2023/01/01 01:07:36;;;;;;;;;;;;;;;10.10;87.46;100169.19;4880316;29;19930;-81
2023/01/01 01:10:03;;;;;;;;;;;;;;;10.04;86.56;100173.19;4858271;29;19930;-82
2023/01/01 01:12:30;;;;;;;;;;;;;;;9.95;86.32;100171.31;4887032;29;19934;-81
2023/01/01 01:14:56;;;;;;;;;;;;;;;9.93;85.82;100165.28;4904855;29;19927;-81
2023/01/01 01:17:23;;;;;;;;;;;;;;;9.85;85.97;100173.00;4898624;29;19990;-83
2023/01/01 01:19:51;;;;;;;;;;;;;;;9.87;86.57;100179.00;4865180;29;19966;-81
2023/01/01 01:22:17;;;;;;;;;;;;;;;9.85;86.35;100176.50;4903403;29;20410;-81
2023/01/01 01:24:51;;;;;;;;;;;;;;;9.77;85.93;100187.72;4900603;29;20482;-81
2023/01/01 01:27:18;;;;;;;;;;;;;;;9.72;85.48;100184.59;4895784;29;20275;-81
2023/01/01 01:29:44;;;;;;;;;;;;;;;9.60;84.30;100177.59;4878942;29;19930;-82
2023/01/01 01:32:11;;;;;;;;;;;;;;;9.54;84.71;100184.22;4884674;29;20282;-81
2023/01/01 01:34:38;;;;;;;;;;;;;;;9.44;84.50;100185.06;4875856;29;19927;-81
2023/01/01 01:37:05;;;;;;;;;;;;;;;9.49;85.08;100177.59;4878554;29;19923;-81
2023/01/01 01:39:32;;;;;;;;;;;;;;;9.46;84.88;100186.63;4898962;29;20343;-81
2023/01/01 01:41:58;;;;;;;;;;;;;;;9.42;84.96;100185.19;4901687;29;19923;-81
2023/01/01 01:44:44;;;;;;;;;;;;;;;9.42;85.04;100179.88;4875216;29;19923;-81
2023/01/01 01:47:14;;;;;;;;;;;;;;;9.38;84.90;100182.88;4886332;29;19927;-81
2023/01/01 01:49:42;;;;;;;;;;;;;;;9.33;84.99;100178.78;4906590;29;19931;-81
2023/01/01 01:52:08;;;;;;;;;;;;;;;9.28;84.88;100180.94;4866922;29;20018;-81
2023/01/01 01:54:35;;;;;;;;;;;;;;;9.30;84.78;100183.50;4902021;29;19927;-81
2023/01/01 01:57:03;;;;;;;;;;;;;;;9.23;85.27;100188.41;4866608;29;20282;-82
2023/01/01 01:59:31;;;;;;;;;;;;;;;9.24;84.21;100181.31;4880493;29;19978;-82
2023/01/01 02:01:57;;;;;;;;;;;;;;;9.23;84.22;100179.63;4895094;29;19926;-81
2023/01/01 02:04:24;;;;;;;;;;;;;;;9.24;84.31;100182.16;4890288;29;19935;-81
2023/01/01 02:06:51;;;;;;;;;;;;;;;9.26;84.41;100187.31;4912694;29;20332;-83
2023/01/01 02:09:18;;;;;;;;;;;;;;;9.23;83.98;100184.91;4910559;29;19927;-81
2023/01/01 02:11:44;;;;;;;;;;;;;;;9.23;84.03;100188.41;4899468;29;19962;-81
2023/01/01 02:14:11;;;;;;;;;;;;;;;9.19;83.67;100186.97;4864072;29;20043;-81
2023/01/01 02:16:53;;;;;;;;;;;;;;;9.14;83.85;100189.13;4863101;29;19994;-81
2023/01/01 02:19:35;;;;;;;;;;;;;;;9.18;83.94;100172.03;4891038;29;20330;-81
2023/01/01 02:22:06;;;;;;;;;;;;;;;9.16;83.96;100181.91;4840084;29;25760;-82
2023/01/01 02:24:51;;;;;;;;;;;;;;;9.05;83.89;100179.22;4857141;29;19923;-82
2023/01/01 02:27:36;;;;;;;;;;;;;;;9.14;84.03;100189.13;4916489;29;19935;-81
2023/01/01 02:30:04;;;;;;;;;;;;;;;8.89;81.93;100183.06;4888356;29;19941;-82
2023/01/01 02:32:33;;;;;;;;;;;;;;;8.75;81.29;100185.03;4874621;29;19923;-81
2023/01/01 02:35:33;;;;;;;;;;;;;;;8.55;82.43;100189.19;4916979;29;19923;-81
2023/01/01 02:37:51;;;;;;;;;;;;;;;8.55;82.40;100181.25;4846920;29;19927;-81
2023/01/01 02:40:17;;;;;;;;;;;;;;;8.58;83.42;100181.03;4903272;29;19923;-82
2023/01/01 02:42:44;;;;;;;;;;;;;;;8.67;85.63;100175.03;4900796;29;19994;-85
2023/01/01 02:45:10;;;;;;;;;;;;;;;8.72;84.71;100180.81;4873075;29;19923;-81
2023/01/01 02:47:37;;;;;;;;;;;;;;;8.72;83.24;100185.28;4904952;29;20328;-82
2023/01/01 02:50:07;;;;;;;;;;;;;;;8.76;83.99;100187.59;4901606;29;19930;-82
2023/01/01 02:52:40;;;;;;;;;;;;;;;8.87;84.50;100184.97;4905050;29;19955;-81
2023/01/01 02:55:15;;;;;;;;;;;;;;;8.81;84.28;100185.44;4875017;29;19931;-82
2023/01/01 02:57:45;;;;;;;;;;;;;;;8.82;84.61;100196.88;4878322;29;20018;-82
2023/01/01 03:00:20;;;;;;;;;;;;;;;8.68;83.24;100198.75;4874147;29;19931;-82
2023/01/01 03:03:01;;;;;;;;;;;;;;;8.45;81.90;100202.28;4889160;29;20030;-86
2023/01/01 03:08:37;;;;;;;;;;;;;;;8.13;82.61;100201.94;4852595;29;19923;-82
2023/01/01 03:11:06;;;;;;;;;;;;;;;8.07;82.31;100203.22;4903508;29;20310;-82
2023/01/01 03:13:39;;;;;;;;;;;;;;;8.01;81.85;100201.88;4900248;29;19923;-82
2023/01/01 03:16:24;;;;;;;;;;;;;;;7.96;82.35;100201.38;4899575;29;19958;-81
2023/01/01 03:19:09;;;;;;;;;;;;;;;7.95;82.10;100194.38;4858795;29;19923;-82
2023/01/01 03:21:42;;;;;;;;;;;;;;;7.97;82.03;100205.69;4874738;29;19924;-81
2023/01/01 03:24:11;;;;;;;;;;;;;;;7.99;83.24;100209.06;4917441;29;20280;-81
2023/01/01 03:26:38;;;;;;;;;;;;;;;8.12;83.77;100206.38;4857527;29;20351;-81
2023/01/01 03:29:05;;;;;;;;;;;;;;;8.10;83.83;100221.53;4919097;29;19923;-82
2023/01/01 03:31:31;;;;;;;;;;;;;;;7.98;81.68;100215.31;4898434;29;19923;-81
2023/01/01 03:34:02;;;;;;;;;;;;;;;7.87;82.63;100217.03;4899858;29;20391;-81
2023/01/01 03:36:39;;;;;;;;;;;;;;;7.89;81.88;100215.97;4890710;29;19923;-81
2023/01/01 03:39:15;;;;;;;;;;;;;;;8.13;84.12;100216.00;4886708;29;19923;-81
2023/01/01 03:41:45;;;;;;;;;;;;;;;8.02;82.20;100219.44;4891528;29;20021;-82
2023/01/01 03:44:14;;;;;;;;;;;;;;;8.20;81.84;100216.41;4920475;29;19955;-81
2023/01/01 03:46:41;;;;;;;;;;;;;;;8.22;82.96;100223.28;4892711;29;20022;-81
2023/01/01 03:49:08;;;;;;;;;;;;;;;8.03;81.28;100225.56;4895205;29;20021;-82
2023/01/01 03:51:38;;;;;;;;;;;;;;;7.78;82.49;100226.44;4917871;29;19923;-82
2023/01/01 03:54:11;;;;;;;;;;;;;;;7.77;83.11;100230.06;4901843;29;20336;-82
2023/01/01 03:56:45;;;;;;;;;;;;;;;7.68;84.59;100233.34;4877109;29;19923;-82
2023/01/01 03:59:14;;;;;;;;;;;;;;;7.60;85.16;100224.13;4899663;29;19928;-81
2023/01/01 04:01:45;;;;;;;;;;;;;;;7.53;84.03;100233.47;4885547;29;19923;-82
2023/01/01 04:04:12;;;;;;;;;;;;;;;7.53;83.37;100240.53;4878352;29;20394;-81
2023/01/01 04:06:39;;;;;;;;;;;;;;;7.75;84.91;100232.78;4907470;29;19923;-81
2023/01/01 04:09:07;;;;;;;;;;;;;;;7.61;83.30;100235.59;4890015;29;20643;-83
2023/01/01 04:12:19;;;;;;;;;;;;;;;7.82;83.31;100238.50;4878246;29;20013;-81
2023/01/01 04:14:31;;;;;;;;;;;;;;;7.98;85.79;100225.88;4855880;29;20397;-82
2023/01/01 04:16:58;;;;;;;;;;;;;;;8.14;87.15;100235.34;4863084;29;19962;-82
2023/01/01 04:19:25;;;;;;;;;;;;;;;8.15;85.05;100237.06;4892887;29;19930;-81
2023/01/01 04:21:51;;;;;;;;;;;;;;;7.92;80.41;100236.06;4890747;29;19923;-81
2023/01/01 04:24:19;;;;;;;;;;;;;;;7.92;80.42;100242.19;4864990;29;19923;-82
2023/01/01 04:26:45;;;;;;;;;;;;;;;7.95;82.32;100231.38;4899977;29;19977;-81
2023/01/01 04:29:12;;;;;;;;;;;;;;;8.11;84.75;100227.66;4872490;29;19928;-81
2023/01/01 04:31:38;;;;;;;;;;;;;;;8.19;85.55;100233.22;4894860;29;19935;-83
2023/01/01 04:34:05;;;;;;;;;;;;;;;8.11;86.01;100227.66;4903642;29;19923;-81
2023/01/01 04:36:32;;;;;;;;;;;;;;;8.07;84.90;100227.03;4890025;29;19923;-81
2023/01/01 04:38:58;;;;;;;;;;;;;;;8.04;84.42;100221.97;4884029;29;19942;-81
2023/01/01 04:41:25;;;;;;;;;;;;;;;7.75;81.18;100226.66;4890125;29;19923;-82
2023/01/01 04:43:51;;;;;;;;;;;;;;;7.63;81.18;100231.00;4896047;29;20390;-81
2023/01/01 04:46:19;;;;;;;;;;;;;;;7.77;81.84;100232.69;4885269;29;19926;-81
2023/01/01 04:48:46;;;;;;;;;;;;;;;7.93;83.26;100233.28;4900010;29;19928;-81
2023/01/01 04:51:13;;;;;;;;;;;;;;;7.76;81.92;100234.50;4870112;29;20335;-81
2023/01/01 04:53:39;;;;;;;;;;;;;;;7.89;83.42;100244.22;4877118;29;19923;-82
2023/01/01 04:56:10;;;;;;;;;;;;;;;7.43;79.92;100237.69;4900118;29;19930;-82
2023/01/01 04:58:37;;;;;;;;;;;;;;;7.34;81.02;100236.53;4878927;29;19934;-82
2023/01/01 05:01:04;;;;;;;;;;;;;;;7.41;81.75;100242.25;4901958;29;20371;-81
2023/01/01 05:03:31;;;;;;;;;;;;;;;7.37;81.12;100238.94;4902139;29;20037;-81
2023/01/01 05:06:04;;;;;;;;;;;;;;;7.33;82.08;100239.28;4884178;29;19923;-81
2023/01/01 05:08:31;;;;;;;;;;;;;;;7.15;83.33;100252.78;4861692;29;19923;-81
2023/01/01 05:11:09;;;;;;;;;;;;;;;7.08;83.14;100248.03;4888088;29;20287;-81
2023/01/01 05:13:36;;;;;;;;;;;;;;;7.08;83.04;100253.31;4900245;29;19960;-82
2023/01/01 05:16:03;;;;;;;;;;;;;;;7.12;82.65;100247.72;4877393;29;20286;-81
2023/01/01 05:18:30;;;;;;;;;;;;;;;7.09;82.35;100253.19;4892904;29;20426;-82
2023/01/01 05:21:03;;;;;;;;;;;;;;;7.08;82.42;100256.78;4875788;29;19923;-81
2023/01/01 05:23:30;;;;;;;;;;;;;;;7.01;82.85;100259.94;4917253;29;20298;-82
2023/01/01 05:25:56;;;;;;;;;;;;;;;7.05;81.80;100264.91;4893002;29;19928;-82
2023/01/01 05:28:23;;;;;;;;;;;;;;;7.05;81.29;100267.56;4885036;29;20382;-82
2023/01/01 05:30:50;;;;;;;;;;;;;;;7.05;81.03;100275.47;4905784;29;20383;-81
2023/01/01 05:33:17;;;;;;;;;;;;;;;7.07;82.29;100273.59;4891020;29;19923;-82
2023/01/01 05:35:43;;;;;;;;;;;;;;;6.98;83.01;100268.06;4912676;29;19923;-82
2023/01/01 05:38:10;;;;;;;;;;;;;;;7.12;81.99;100274.13;4912973;29;20022;-82
2023/01/01 05:40:37;;;;;;;;;;;;;;;7.12;82.21;100274.13;4914787;29;19998;-84
2023/01/01 05:43:04;;;;;;;;;;;;;;;7.09;82.39;100278.75;4904959;29;19931;-82
2023/01/01 05:45:31;;;;;;;;;;;;;;;7.20;82.46;100281.53;4897539;29;19924;-82
2023/01/01 05:47:58;;;;;;;;;;;;;;;7.22;82.96;100287.53;4868835;29;19931;-83
2023/01/01 05:50:24;;;;;;;;;;;;;;;7.08;82.94;100291.13;4872943;29;19955;-82
2023/01/01 05:52:51;;;;;;;;;;;;;;;7.16;83.65;100283.53;4890600;29;19927;-81
2023/01/01 05:55:18;;;;;;;;;;;;;;;7.03;84.69;100284.47;4892959;29;20339;-85
2023/01/01 05:57:44;;;;;;;;;;;;;;;7.02;83.65;100280.09;4883175;29;19927;-82
2023/01/01 06:00:11;;;;;;;;;;;;;;;7.06;83.28;100278.97;4857309;29;19927;-82
2023/01/01 06:02:37;;;;;;;;;;;;;;;7.00;82.57;100268.81;4905842;29;20372;-82
2023/01/01 06:05:04;;;;;;;;;;;;;;;6.99;82.61;100275.88;4903972;29;19933;-82
2023/01/01 06:07:31;;;;;;;;;;;;;;;7.10;82.16;100283.94;4892272;29;19942;-82
2023/01/01 06:09:57;;;;;;;;;;;;;;;6.91;84.06;100271.09;4878054;29;19929;-81
2023/01/01 06:12:24;;;;;;;;;;;;;;;7.00;83.70;100282.88;4890885;29;19975;-82
2023/01/01 06:14:50;;;;;;;;;;;;;;;7.01;83.92;100279.25;4885241;29;19934;-82
2023/01/01 06:17:17;;;;;;;;;;;;;;;6.89;84.76;100282.72;4883811;29;19931;-83
2023/01/01 06:19:43;;;;;;;;;;;;;;;6.98;84.66;100284.75;4889010;29;19927;-82
2023/01/01 06:22:10;;;;;;;;;;;;;;;6.90;84.88;100300.25;4906804;29;19927;-81
2023/01/01 06:24:37;;;;;;;;;;;;;;;6.92;84.21;100304.50;4890645;29;19926;-82
2023/01/01 06:27:05;;;;;;;;;;;;;;;7.14;87.41;100306.53;4862895;29;20027;-82
2023/01/01 06:29:32;;;;;;;;;;;;;;;7.31;88.90;100309.88;4866440;29;19942;-81
2023/01/01 06:31:59;;;;;;;;;;;;;;;7.43;86.78;100309.03;4880754;29;20425;-82
2023/01/01 06:34:25;;;;;;;;;;;;;;;7.39;86.88;100307.53;4906862;29;19923;-82
2023/01/01 06:36:52;;;;;;;;;;;;;;;7.36;86.28;100307.75;4889838;29;20007;-82
2023/01/01 06:39:18;;;;;;;;;;;;;;;7.35;86.29;100312.19;4875547;29;20282;-81
2023/01/01 06:41:45;;;;;;;;;;;;;;;7.37;86.38;100309.44;4892080;29;19931;-83
2023/01/01 06:44:11;;;;;;;;;;;;;;;7.37;86.05;100315.56;4886758;29;20453;-82
2023/01/01 06:46:38;;;;;;;;;;;;;;;7.36;86.10;100311.25;4901933;29;20393;-81
2023/01/01 06:49:05;;;;;;;;;;;;;;;7.40;85.24;100309.22;4887148;29;19965;-82
2023/01/01 06:51:35;;;;;;;;;;;;;;;7.43;84.71;100313.47;4914250;29;20383;-81
2023/01/01 06:54:01;;;;;;;;;;;;;;;7.33;84.07;100314.09;4885270;29;19938;-81
2023/01/01 06:56:28;;;;;;;;;;;;;;;7.16;84.19;100311.72;4901000;29;19930;-81
2023/01/01 06:58:55;;;;;;;;;;;;;;;7.16;84.02;100328.41;4900879;29;19923;-82
2023/01/01 07:01:22;;;;;;;;;;;;;;;7.11;84.31;100330.53;4874383;29;19930;-81
2023/01/01 07:03:50;;;;;;;;;;;;;;;7.04;84.28;100334.50;4876693;29;19923;-83
2023/01/01 07:06:16;;;;;;;;;;;;;;;6.96;83.38;100334.16;4900882;29;20439;-81
2023/01/01 07:08:43;;;;;;;;;;;;;;;6.93;83.84;100347.56;4883816;29;19930;-82
2023/01/01 07:11:10;;;;;;;;;;;;;;;7.07;85.31;100339.59;4914639;29;19931;-82
2023/01/01 07:13:36;;;;;;;;;;;;;;;7.11;86.00;100333.16;4901665;29;19923;-82
2023/01/01 07:16:04;;;;;;;;;;;;;;;7.22;86.49;100344.81;4900512;29;19924;-82
2023/01/01 07:18:37;;;;;;;;;;;;;;;7.32;86.12;100351.16;4891361;29;19923;-82
2023/01/01 07:21:04;;;;;;;;;;;;;;;7.17;86.11;100356.53;4891876;29;19923;-82
2023/01/01 07:23:32;;;;;;;;;;;;;;;7.01;83.40;100357.63;4890186;29;20354;-82
2023/01/01 07:25:59;;;;;;;;;;;;;;;6.85;83.97;100353.34;4880644;29;19979;-81
2023/01/01 07:28:26;;;;;;;;;;;;;;;6.79;84.42;100374.84;4875098;29;19934;-81
2023/01/01 07:30:53;;;;;;;;;;;;;;;6.77;84.68;100365.34;4904916;29;19924;-81
2023/01/01 07:33:20;;;;;;;;;;;;;;;6.79;84.31;100377.47;4916087;29;19977;-82
2023/01/01 07:35:47;;;;;;;;;;;;;;;6.80;84.13;100383.63;4864133;29;19978;-82
2023/01/01 07:38:13;;;;;;;;;;;;;;;6.73;84.07;100381.38;4900836;29;19923;-82
2023/01/01 07:40:40;;;;;;;;;;;;;;;6.95;85.38;100386.13;4903391;29;20046;-82
2023/01/01 07:43:08;;;;;;;;;;;;;;;6.96;84.55;100389.63;4880194;29;19923;-82
2023/01/01 07:45:34;;;;;;;;;;;;;;;6.87;83.66;100392.84;4882635;29;20485;-82
2023/01/01 07:48:01;;;;;;;;;;;;;;;6.87;83.59;100398.97;4879621;29;19927;-81
2023/01/01 07:50:29;;;;;;;;;;;;;;;6.82;83.53;100397.56;4901163;29;20385;-81
2023/01/01 07:52:56;;;;;;;;;;;;;;;6.69;84.06;100393.09;4902985;29;20323;-82
2023/01/01 07:55:22;;;;;;;;;;;;;;;6.97;85.53;100407.13;4885622;29;19923;-81
2023/01/01 07:57:49;;;;;;;;;;;;;;;6.95;84.64;100401.97;4896162;29;19923;-81
2023/01/01 08:00:17;;;;;;;;;;;;;;;6.82;82.62;100400.19;4905072;29;19924;-82
2023/01/01 08:02:43;;;;;;;;;;;;;;;6.69;83.15;100422.13;4885967;29;19923;-81
2023/01/01 08:05:10;;;;;;;;;;;;;;;6.78;83.16;100418.03;4907028;29;20002;-81
2023/01/01 08:07:37;;;;;;;;;;;;;;;6.62;84.11;100423.44;4886016;29;19923;-82
2023/01/01 08:10:04;;;;;;;;;;;;;;;6.62;83.97;100415.53;4900079;29;19923;-81
2023/01/01 08:12:31;;;;;;;;;;;;;;;6.64;84.85;100416.28;4880138;29;19979;-82
2023/01/01 08:14:57;;;;;;;;;;;;;;;6.65;85.38;100427.69;4904481;29;20387;-82
2023/01/01 08:17:24;;;;;;;;;;;;;;;6.60;85.45;100435.03;4918150;29;19947;-81
2023/01/01 08:19:51;;;;;;;;;;;;;;;6.64;85.39;100428.59;4918104;29;19930;-80
2023/01/01 08:22:18;;;;;;;;;;;;;;;6.77;85.45;100429.56;4922881;29;20288;-80
2023/01/01 08:24:44;;;;;;;;;;;;;;;6.99;86.87;100436.09;4902808;29;19978;-80
2023/01/01 08:27:12;;;;;;;;;;;;;;;6.72;85.48;100440.41;4900485;29;19933;-81
2023/01/01 08:29:39;;;;;;;;;;;;;;;6.92;86.16;100423.28;4904834;29;20406;-81
2023/01/01 08:32:06;;;;;;;;;;;;;;;6.85;85.94;100429.91;4908100;29;20360;-81
2023/01/01 08:34:33;;;;;;;;;;;;;;;7.00;85.60;100433.38;4901202;29;20107;-80
2023/01/01 08:36:59;;;;;;;;;;;;;;;7.05;85.43;100431.28;4921315;29;19934;-80
2023/01/01 08:39:26;;;;;;;;;;;;;;;7.00;85.71;100440.44;4873806;29;19970;-80
2023/01/01 08:41:52;;;;;;;;;;;;;;;7.01;86.35;100436.84;4905876;29;19931;-80
2023/01/01 08:44:19;;;;;;;;;;;;;;;6.95;87.53;100440.72;4906814;29;19927;-79
2023/01/01 08:46:45;;;;;;;;;;;;;;;6.98;87.75;100445.81;4890843;29;19975;-81
2023/01/01 08:49:12;;;;;;;;;;;;;;;6.96;88.64;100437.13;4896130;29;19923;-81
2023/01/01 08:51:39;;;;;;;;;;;;;;;7.02;88.79;100436.75;4892161;29;19927;-80
2023/01/01 08:54:06;;;;;;;;;;;;;;;7.22;89.31;100427.53;4923573;29;20787;-80
2023/01/01 08:56:32;;;;;;;;;;;;;;;7.29;90.48;100426.19;4903887;29;20285;-81
2023/01/01 08:58:59;;;;;;;;;;;;;;;7.41;90.74;100423.72;4898603;29;19927;-81
2023/01/01 09:01:30;;;;;;;;;;;;;;;7.50;91.29;100423.91;4905709;29;20350;-80
2023/01/01 09:03:56;;;;;;;;;;;;;;;7.52;90.80;100429.13;4886719;29;19923;-82
2023/01/01 09:06:23;;;;;;;;;;;;;;;7.56;90.87;100431.47;4904555;29;20080;-81
2023/01/01 09:08:50;;;;;;;;;;;;;;;7.51;90.68;100424.78;4900311;29;19924;-81
2023/01/01 09:11:26;;;;;;;;;;;;;;;7.54;90.86;100424.59;4899285;29;19965;-82
2023/01/01 09:13:53;;;;;;;;;;;;;;;7.50;90.13;100431.84;4889189;29;20005;-81
2023/01/01 09:16:19;;;;;;;;;;;;;;;7.60;90.20;100427.66;4891486;29;19927;-80
2023/01/01 09:18:46;;;;;;;;;;;;;;;7.59;90.47;100425.97;4874631;29;19923;-80
2023/01/01 09:21:12;;;;;;;;;;;;;;;7.63;90.43;100425.75;4892288;29;20378;-81
2023/01/01 09:23:39;;;;;;;;;;;;;;;7.65;89.78;100430.00;4905458;29;19979;-81
2023/01/01 09:26:06;;;;;;;;;;;;;;;7.72;89.87;100436.56;4906363;29;20295;-81
2023/01/01 09:28:33;;;;;;;;;;;;;;;7.70;90.11;100441.09;4885150;29;19966;-81
2023/01/01 09:31:00;;;;;;;;;;;;;;;7.80;90.26;100446.63;4881793;29;19923;-81
2023/01/01 09:33:27;;;;;;;;;;;;;;;7.85;90.67;100456.91;4890768;29;20014;-82
2023/01/01 09:35:53;;;;;;;;;;;;;;;7.82;91.08;100465.88;4889552;29;19934;-81
2023/01/01 09:38:20;;;;;;;;;;;;;;;7.86;91.27;100463.88;4906190;29;19927;-81
2023/01/01 09:41:02;;;;;;;;;;;;;;;7.92;91.43;100474.88;4907931;29;21272;-81
2023/01/01 09:43:28;;;;;;;;;;;;;;;7.95;92.14;100476.47;4839587;29;19938;-81
2023/01/01 09:45:56;;;;;;;;;;;;;;;7.99;92.34;100484.13;4909268;29;19927;-81
2023/01/01 09:48:23;;;;;;;;;;;;;;;7.95;92.60;100485.25;4889583;29;19923;-80
2023/01/01 09:50:49;;;;;;;;;;;;;;;7.88;92.90;100491.06;4888572;29;19923;-81
2023/01/01 09:53:17;;;;;;;;;;;;;;;7.97;92.50;100486.00;4896576;29;20014;-81
2023/01/01 09:55:44;;;;;;;;;;;;;;;7.97;92.54;100480.72;4905033;29;19934;-81
2023/01/01 09:58:10;;;;;;;;;;;;;;;7.92;91.84;100476.69;4906056;29;19977;-80
2023/01/01 10:00:39;;;;;;;;;;;;;;;7.98;91.56;100473.63;4875146;29;19923;-81
2023/01/01 10:03:10;;;;;;;;;;;;;;;8.03;91.59;100474.16;4853953;29;20006;-81
2023/01/01 10:05:41;;;;;;;;;;;;;;;8.08;91.96;100466.75;4884505;29;20276;-81
2023/01/01 10:08:17;;;;;;;;;;;;;;;8.11;92.28;100469.19;4884059;29;19923;-81
2023/01/01 10:10:57;;;;;;;;;;;;;;;8.19;92.57;100471.31;4894478;29;19923;-80
2023/01/01 10:13:23;;;;;;;;;;;;;;;8.24;92.78;100478.00;4890461;29;20290;-82
2023/01/01 10:15:57;;;;;;;;;;;;;;;8.31;91.92;100470.47;4889749;29;19931;-81
2023/01/01 10:18:25;;;;;;;;;;;;;;;8.35;92.03;100477.25;4899790;29;19924;-82
2023/01/01 10:20:58;;;;;;;;;;;;;;;8.40;92.02;100479.63;4861137;29;19923;-82
2023/01/01 10:23:25;;;;;;;;;;;;;;;8.45;91.88;100467.78;4863309;29;19934;-80
2023/01/01 10:25:52;;;;;;;;;;;;;;;8.50;91.96;100463.94;4909318;29;20037;-80
2023/01/01 10:28:28;;;;;;;;;;;;;;;8.52;92.80;100462.03;4875567;29;19931;-80
2023/01/01 10:30:57;;;;;;;;;;;;;;;8.65;92.11;100457.56;4905230;29;19931;-82
2023/01/01 10:33:24;;;;;;;;;;;;;;;8.73;92.04;100463.19;4888805;29;19938;-80
2023/01/01 10:35:51;;;;;;;;;;;;;;;8.75;92.08;100453.34;4873549;29;19931;-80
2023/01/01 10:38:21;;;;;;;;;;;;;;;8.82;91.66;100449.28;4874632;29;20009;-80
2023/01/01 10:40:48;;;;;;;;;;;;;;;8.89;91.80;100449.69;4906636;29;19930;-80
2023/01/01 10:43:15;;;;;;;;;;;;;;;8.93;92.14;100445.00;4876017;29;19923;-80
2023/01/01 10:45:43;;;;;;;;;;;;;;;8.96;92.40;100450.13;4903710;29;19927;-80
2023/01/01 10:48:14;;;;;;;;;;;;;;;8.99;92.50;100442.78;4901886;29;20355;-79
2023/01/01 10:50:44;;;;;;;;;;;;;;;9.03;92.39;100433.66;4898192;29;19930;-79
2023/01/01 10:53:20;;;;;;;;;;;;;;;9.06;93.01;100436.09;4917999;29;19923;-80
2023/01/01 10:55:48;;;;;;;;;;;;;;;9.10;92.78;100434.88;4871917;29;19931;-83
2023/01/01 10:58:36;;;;;;;;;;;;;;;9.14;93.27;100432.88;4863595;29;19931;-79
2023/01/01 11:01:03;;;;;;;;;;;;;;;9.17;93.23;100430.00;4851896;29;19975;-80
2023/01/01 11:03:30;;;;;;;;;;;;;;;9.18;93.26;100433.50;4879421;29;20011;-80
2023/01/01 11:06:11;;;;;;;;;;;;;;;9.23;93.20;100420.75;4851388;29;19927;-79
2023/01/01 11:08:38;;;;;;;;;;;;;;;9.26;93.36;100420.53;4852859;29;19951;-80
2023/01/01 11:11:05;;;;;;;;;;;;;;;9.29;93.63;100410.56;4880430;29;19927;-80
2023/01/01 11:13:31;;;;;;;;;;;;;;;9.32;93.81;100402.38;4868456;29;19923;-80
2023/01/01 11:15:58;;;;;;;;;;;;;;;9.36;94.12;100400.31;4865960;29;19988;-80
2023/01/01 11:18:25;;;;;;;;;;;;;;;9.41;94.46;100389.38;4879028;29;20010;-80
2023/01/01 11:20:52;;;;;;;;;;;;;;;9.44;94.33;100389.16;4851126;29;19927;-80
2023/01/01 11:23:19;;;;;;;;;;;;;;;9.49;94.36;100393.19;4881248;29;19967;-79
2023/01/01 11:25:55;;;;;;;;;;;;;;;9.52;94.30;100389.44;4865117;29;19923;-80
2023/01/01 11:28:22;;;;;;;;;;;;;;;9.53;94.07;100391.97;4909784;29;19931;-81
2023/01/01 11:31:02;;;;;;;;;;;;;;;9.57;93.83;100382.00;4914294;29;19930;-80
2023/01/01 11:33:29;;;;;;;;;;;;;;;9.56;95.89;100373.16;4851253;29;19998;-80
2023/01/01 11:35:56;;;;;;;;;;;;;;;9.62;94.84;100385.13;4874261;29;20336;-80
2023/01/01 11:38:23;;;;;;;;;;;;;;;9.62;94.27;100377.19;4906880;29;19938;-84
2023/01/01 11:40:55;;;;;;;;;;;;;;;9.66;94.14;100375.13;4882608;29;19923;-79
2023/01/01 11:43:22;;;;;;;;;;;;;;;9.66;94.75;100368.03;4878253;29;20268;-80
2023/01/01 11:45:49;;;;;;;;;;;;;;;9.66;94.28;100368.03;4914284;29;19931;-80
2023/01/01 11:48:17;;;;;;;;;;;;;;;9.65;95.37;100373.47;4902486;29;20600;-80
2023/01/01 11:51:03;;;;;;;;;;;;;;;9.64;94.90;100374.41;4901207;29;19930;-81
2023/01/01 11:53:31;;;;;;;;;;;;;;;9.64;95.24;100377.91;4893853;29;20414;-80
2023/01/01 11:56:00;;;;;;;;;;;;;;;9.64;94.56;100382.34;4909595;29;19923;-80
2023/01/01 11:58:27;;;;;;;;;;;;;;;9.65;94.94;100379.59;4902113;29;19923;-78
2023/01/01 12:00:54;;;;;;;;;;;;;;;9.67;94.53;100371.53;4911223;29;19931;-79
2023/01/01 12:03:25;;;;;;;;;;;;;;;9.68;94.33;100373.22;4888900;29;19979;-79
2023/01/01 12:06:02;;;;;;;;;;;;;;;9.68;94.20;100367.91;4892159;29;19923;-80
2023/01/01 12:08:38;;;;;;;;;;;;;;;9.69;94.65;100359.84;4893612;29;19923;-80
2023/01/01 12:11:09;;;;;;;;;;;;;;;9.71;94.13;100351.75;4893758;29;20402;-79
2023/01/01 12:13:44;;;;;;;;;;;;;;;9.72;94.19;100345.50;4869633;29;19927;-80
2023/01/01 12:16:13;;;;;;;;;;;;;;;9.73;94.85;100341.88;4902544;29;19923;-80
2023/01/01 12:18:41;;;;;;;;;;;;;;;9.76;95.61;100342.47;4903578;29;19974;-80
2023/01/01 12:21:13;;;;;;;;;;;;;;;9.77;95.74;100338.88;4891825;29;19969;-79
2023/01/01 12:23:39;;;;;;;;;;;;;;;9.78;95.91;100332.59;4902110;29;19931;-80
2023/01/01 12:26:17;;;;;;;;;;;;;;;9.80;96.19;100334.31;4905836;29;19923;-80
2023/01/01 12:29:02;;;;;;;;;;;;;;;9.81;96.28;100334.19;4889778;29;19923;-79
2023/01/01 12:31:29;;;;;;;;;;;;;;;9.83;95.70;100329.59;4903159;29;19923;-79
2023/01/01 12:34:14;;;;;;;;;;;;;;;9.85;96.29;100329.50;4917718;29;20286;-79
2023/01/01 12:36:50;;;;;;;;;;;;;;;9.89;96.43;100326.47;4890411;29;19930;-80
2023/01/01 12:39:35;;;;;;;;;;;;;;;9.93;96.71;100330.56;4907223;29;20002;-79
2023/01/01 12:42:16;;;;;;;;;;;;;;;9.97;96.48;100326.72;4872476;29;20359;-80
2023/01/01 12:45:03;;;;;;;;;;;;;;;10.02;96.78;100317.56;4880501;29;20286;-80
2023/01/01 12:47:49;;;;;;;;;;;;;;;10.04;96.67;100315.63;4877543;29;19923;-78
2023/01/01 12:50:22;;;;;;;;;;;;;;;10.05;97.24;100318.19;4900967;29;19930;-79
2023/01/01 12:52:52;;;;;;;;;;;;;;;10.07;97.05;100318.88;4904325;29;19927;-79
2023/01/01 12:55:38;;;;;;;;;;;;;;;10.07;96.94;100315.38;4897242;29;20414;-79
2023/01/01 12:58:18;;;;;;;;;;;;;;;10.07;96.75;100310.91;4894872;29;19954;-78